Terminal Aerodrome Forecast
Issued by NWS Atlanta, GA

Home | Current Version | Previous Version | Text Only | Print | Product List | Glossary On
Versions: 1 2 3 4 5 6 7 8 9 10 11 12 13 14 15 16 17 18 19 20 21 22 23 24 25 26 27 28 29 30 31 32 33 34 35 36 37 38 39 40 41
944
FTUS42 KFFC 270520
TAFATL
TAF
KATL 270520Z 2706/2812 20003KT P6SM SCT100
     FM271000 17003KT P6SM SCT008 BKN015
      TEMPO 2710/2714 BKN008
     FM271500 21010G15KT P6SM BKN020
     FM271800 22010G15KT P6SM VCSH BKN045 PROB30 2722/2803 4SM -TSRA
      BKN045CB
     FM280300 17005KT P6SM VCSH BKN035
     FM281000 22005KT 5SM BR OVC012=

USA.gov is the U.S. government's official web portal to all federal, state and local government web resources and services.